createdAt,value
2022-12-17T00:00:37.831Z,2.20
2022-12-17T00:03:58.224Z,2.20
2022-12-17T00:07:18.337Z,2.35
2022-12-17T00:10:38.172Z,2.22
2022-12-17T00:13:58.096Z,2.30
2022-12-17T00:17:18.226Z,2.30
2022-12-17T00:20:38.258Z,2.22
2022-12-17T00:23:58.536Z,2.50
2022-12-17T00:27:18.498Z,2.30
2022-12-17T00:30:38.530Z,2.33
2022-12-17T00:33:58.672Z,2.20
2022-12-17T00:37:18.537Z,2.17
2022-12-17T00:40:38.575Z,2.38
2022-12-17T00:43:58.381Z,2.20
2022-12-17T00:47:18.541Z,2.10
2022-12-17T00:50:38.713Z,2.10
2022-12-17T00:53:58.691Z,2.10
2022-12-17T00:57:18.713Z,1.90
2022-12-17T01:00:38.849Z,2.10
2022-12-17T01:03:58.980Z,2.10
2022-12-17T01:07:19.813Z,2.10
2022-12-17T01:10:41.261Z,2.08
2022-12-17T01:14:01.559Z,2.08
2022-12-17T01:17:22.079Z,2.00
2022-12-17T01:20:42.327Z,1.90
2022-12-17T01:24:03.880Z,1.80
2022-12-17T01:27:24.713Z,1.88
2022-12-17T01:30:44.854Z,1.83
2022-12-17T01:34:05.030Z,2.10
2022-12-17T01:37:25.247Z,1.98
2022-12-17T01:40:45.891Z,1.77
2022-12-17T01:44:05.855Z,1.95
2022-12-17T01:47:27.992Z,1.80
2022-12-17T01:50:53.170Z,1.90
2022-12-17T01:54:13.551Z,1.77
2022-12-17T01:57:33.855Z,1.85
2022-12-17T02:00:54.105Z,1.95
2022-12-17T02:04:14.249Z,1.90
2022-12-17T02:07:43.643Z,1.70
2022-12-17T02:11:29.444Z,1.90
2022-12-17T02:14:57.651Z,1.60
2022-12-17T02:18:23.808Z,1.63
2022-12-17T02:21:45.908Z,1.60
2022-12-17T02:25:19.379Z,1.80
2022-12-17T02:28:39.640Z,1.55
2022-12-17T02:32:03.029Z,1.67
2022-12-17T02:35:33.542Z,1.70
2022-12-17T02:38:53.747Z,1.50
2022-12-17T02:42:18.463Z,1.70
2022-12-17T02:45:39.387Z,1.63
2022-12-17T02:49:00.349Z,1.50
2022-12-17T02:52:23.490Z,1.52
2022-12-17T02:55:43.611Z,1.50
2022-12-17T02:59:03.820Z,1.48
2022-12-17T03:02:26.229Z,1.40
2022-12-17T03:05:46.615Z,1.60
2022-12-17T03:09:06.567Z,1.50
2022-12-17T03:12:26.398Z,1.40
2022-12-17T03:15:46.118Z,1.50
2022-12-17T03:19:08.785Z,1.40
2022-12-17T03:22:30.179Z,1.70
2022-12-17T03:25:50.046Z,1.50
2022-12-17T03:29:10.537Z,1.42
2022-12-17T03:32:30.352Z,1.55
2022-12-17T03:35:50.141Z,1.60
2022-12-17T03:39:10.085Z,1.50
2022-12-17T03:42:29.973Z,1.33
2022-12-17T03:45:50.217Z,1.48
2022-12-17T03:49:10.335Z,1.50
2022-12-17T03:52:30.425Z,1.20
2022-12-17T03:55:50.262Z,1.38
2022-12-17T03:59:10.116Z,1.40
2022-12-17T04:02:30.204Z,1.25
2022-12-17T04:05:50.223Z,1.25
2022-12-17T04:09:10.024Z,1.30
2022-12-17T04:12:29.936Z,1.30
2022-12-17T04:15:49.848Z,1.33
2022-12-17T04:19:10.107Z,1.17
2022-12-17T04:22:30.140Z,1.20
2022-12-17T04:25:49.841Z,1.30
2022-12-17T04:29:09.593Z,1.30
2022-12-17T04:32:34.894Z,1.50
2022-12-17T04:35:55.563Z,1.30
2022-12-17T04:39:15.361Z,1.17
2022-12-17T04:42:35.274Z,1.20
2022-12-17T04:45:56.622Z,1.23
2022-12-17T04:49:16.936Z,1.17
2022-12-17T04:52:36.749Z,1.20
2022-12-17T04:55:56.757Z,1.20
2022-12-17T04:59:16.815Z,1.10
2022-12-17T05:02:42.356Z,1.23
2022-12-17T05:06:02.903Z,1.10
2022-12-17T05:09:22.693Z,1.10
2022-12-17T05:12:42.567Z,1.20
2022-12-17T05:16:02.925Z,1.23
2022-12-17T05:19:23.063Z,1.20
2022-12-17T05:22:43.172Z,1.10
2022-12-17T05:26:02.950Z,1.10
2022-12-17T05:29:22.809Z,1.10
2022-12-17T05:32:42.590Z,1.20
2022-12-17T05:36:02.502Z,1.10
2022-12-17T05:39:22.458Z,1.10
2022-12-17T05:42:42.634Z,1.08
2022-12-17T05:46:03.758Z,1.00
2022-12-17T05:49:26.894Z,1.30
2022-12-17T05:52:46.736Z,1.10
2022-12-17T05:56:08.681Z,1.10
2022-12-17T05:59:28.587Z,1.20
2022-12-17T06:02:48.619Z,1.00
2022-12-17T06:06:13.443Z,1.10
2022-12-17T06:09:34.333Z,1.10
2022-12-17T06:12:54.087Z,1.13
2022-12-17T06:16:14.170Z,1.10
2022-12-17T06:19:34.449Z,1.00
2022-12-17T06:22:54.353Z,1.00
2022-12-17T06:26:15.578Z,1.13
2022-12-17T06:29:35.437Z,1.00
2022-12-17T06:33:15.044Z,1.00
2022-12-17T06:36:35.068Z,1.10
2022-12-17T06:39:54.909Z,1.00
2022-12-17T06:43:15.750Z,1.02
2022-12-17T06:46:35.674Z,0.95
2022-12-17T06:50:01.054Z,1.10
2022-12-17T06:53:24.652Z,1.20
2022-12-17T06:56:45.192Z,0.98
2022-12-17T07:00:05.130Z,1.10
2022-12-17T07:03:25.280Z,1.15
2022-12-17T07:06:45.488Z,0.95
2022-12-17T07:10:12.161Z,1.10
2022-12-17T07:13:34.076Z,1.20
2022-12-17T07:16:54.460Z,1.05
2022-12-17T07:20:14.343Z,1.00
2022-12-17T07:23:34.877Z,1.10
2022-12-17T07:26:55.271Z,1.05
2022-12-17T07:30:15.324Z,1.00
2022-12-17T07:33:35.531Z,1.13
2022-12-17T07:36:56.151Z,1.20
2022-12-17T07:40:15.970Z,1.13
2022-12-17T07:43:36.837Z,1.20
2022-12-17T07:46:57.196Z,1.00
2022-12-17T07:50:17.043Z,1.13
2022-12-17T07:53:37.400Z,1.00
2022-12-17T07:56:57.586Z,1.10
2022-12-17T08:00:17.483Z,1.00
2022-12-17T08:03:37.823Z,1.20
2022-12-17T08:07:02.770Z,1.05
2022-12-17T08:13:45.874Z,1.08
2022-12-17T08:17:05.923Z,1.00
2022-12-17T08:20:26.576Z,1.17
2022-12-17T08:23:46.462Z,1.10
2022-12-17T08:27:06.360Z,1.20
2022-12-17T08:30:27.082Z,1.20
2022-12-17T08:33:47.246Z,1.00
2022-12-17T08:37:07.091Z,1.08
2022-12-17T08:40:27.739Z,1.05
2022-12-17T08:43:49.235Z,1.55
2022-12-17T08:47:09.150Z,1.02
2022-12-17T08:50:29.070Z,1.30
2022-12-17T08:53:49.321Z,1.20
2022-12-17T08:57:09.210Z,1.25
2022-12-17T09:00:29.608Z,1.30
2022-12-17T09:03:49.588Z,1.30
2022-12-17T09:07:09.755Z,1.40
2022-12-17T09:10:29.874Z,1.20
2022-12-17T09:13:50.128Z,1.20
2022-12-17T09:17:26.785Z,1.50
2022-12-17T09:20:47.251Z,1.40
2022-12-17T09:24:07.224Z,1.40
2022-12-17T09:27:27.621Z,1.30
2022-12-17T09:30:47.474Z,1.40
2022-12-17T09:34:07.604Z,1.33
2022-12-17T09:37:27.496Z,1.40
2022-12-17T09:40:48.878Z,1.25
2022-12-17T09:44:19.956Z,1.55
2022-12-17T09:48:00.730Z,1.50
2022-12-17T09:51:21.118Z,1.60
2022-12-17T09:54:59.280Z,1.50
2022-12-17T09:58:21.772Z,1.38
2022-12-17T10:01:45.632Z,1.55
2022-12-17T10:05:06.193Z,1.77
2022-12-17T10:08:29.819Z,1.80
2022-12-17T10:11:49.984Z,1.73
2022-12-17T10:15:10.058Z,1.92
2022-12-17T10:18:31.974Z,1.98
2022-12-17T10:21:52.945Z,1.90
2022-12-17T10:25:13.281Z,2.00
2022-12-17T10:28:40.298Z,2.20
2022-12-17T10:32:00.209Z,2.28
2022-12-17T10:35:53.792Z,2.15
2022-12-17T10:39:14.268Z,1.95
2022-12-17T10:42:49.325Z,2.17
2022-12-17T10:46:14.996Z,2.08
2022-12-17T10:49:43.331Z,1.92
2022-12-17T10:53:06.265Z,2.40
2022-12-17T10:56:40.814Z,2.28
2022-12-17T11:00:01.294Z,2.15
2022-12-17T11:03:22.862Z,2.50
2022-12-17T11:06:50.519Z,2.33
2022-12-17T11:10:15.768Z,2.53
2022-12-17T11:13:47.006Z,2.17
2022-12-17T11:17:13.394Z,2.78
2022-12-17T11:21:06.863Z,2.47
2022-12-17T11:24:35.423Z,2.20
2022-12-17T11:28:03.948Z,2.40
2022-12-17T11:31:36.189Z,2.00
2022-12-17T11:35:21.835Z,2.10
2022-12-17T11:38:53.263Z,2.25
2022-12-17T11:42:43.051Z,2.10
2022-12-17T11:46:26.361Z,1.70
2022-12-17T11:50:08.392Z,1.95
2022-12-17T11:53:44.362Z,1.90
2022-12-17T11:57:30.895Z,1.77
2022-12-17T12:01:05.887Z,1.75
2022-12-17T12:05:04.307Z,1.90
2022-12-17T12:08:30.356Z,1.70
2022-12-17T12:12:00.917Z,1.83
2022-12-17T12:16:04.850Z,1.65
2022-12-17T12:19:39.388Z,1.70
2022-12-17T12:23:05.525Z,1.90
2022-12-17T12:26:39.860Z,1.90
2022-12-17T12:30:30.136Z,1.58
2022-12-17T12:34:17.967Z,1.80
2022-12-17T12:37:39.265Z,1.73
2022-12-17T12:41:10.641Z,1.70
2022-12-17T12:45:02.260Z,1.50
2022-12-17T12:48:53.039Z,1.48
2022-12-17T12:52:15.243Z,2.10
2022-12-17T12:55:35.189Z,2.65
2022-12-17T12:58:55.597Z,3.00
2022-12-17T13:02:15.551Z,4.18
2022-12-17T13:05:35.328Z,5.13
2022-12-17T13:08:37.637Z,5.03
2022-12-17T13:11:39.414Z,5.60
2022-12-17T13:14:59.609Z,5.57
2022-12-17T13:18:19.175Z,5.93
2022-12-17T13:21:20.585Z,6.07
2022-12-17T13:24:27.176Z,5.63
2022-12-17T13:30:37.811Z,5.18
2022-12-17T13:34:07.890Z,4.97
2022-12-17T13:37:23.817Z,5.30
2022-12-17T13:40:46.696Z,5.07
2022-12-17T13:43:52.248Z,5.05
2022-12-17T13:46:54.362Z,4.38
2022-12-17T13:50:32.202Z,4.57
2022-12-17T13:53:20.163Z,3.65
2022-12-17T13:56:24.004Z,4.10
2022-12-17T13:59:25.545Z,3.80
2022-12-17T14:02:35.075Z,3.85
2022-12-17T14:05:41.875Z,3.65
2022-12-17T14:08:43.986Z,4.20
2022-12-17T14:12:04.420Z,3.78
2022-12-17T14:15:12.152Z,3.65
2022-12-17T14:18:18.582Z,3.30
2022-12-17T14:21:21.555Z,3.10
2022-12-17T14:24:27.205Z,3.08
2022-12-17T14:27:34.906Z,3.60
2022-12-17T14:30:56.382Z,3.47
2022-12-17T14:34:11.682Z,2.70
2022-12-17T14:37:25.643Z,2.80
2022-12-17T14:40:27.297Z,2.83
2022-12-17T14:43:29.428Z,2.90
2022-12-17T14:46:33.020Z,2.65
2022-12-17T14:49:34.758Z,2.90
2022-12-17T14:52:52.992Z,2.40
2022-12-17T14:55:57.240Z,2.60
2022-12-17T14:58:58.783Z,2.78
2022-12-17T15:02:04.905Z,2.38
2022-12-17T15:05:07.378Z,2.47
2022-12-17T15:08:11.652Z,2.13
2022-12-17T15:11:18.526Z,2.20
2022-12-17T15:14:20.004Z,2.40
2022-12-17T15:17:21.878Z,2.33
2022-12-17T15:20:23.374Z,2.33
2022-12-17T15:23:25.209Z,2.15
2022-12-17T15:26:26.857Z,2.05
2022-12-17T15:29:29.381Z,2.17
2022-12-17T15:32:30.827Z,1.90
2022-12-17T15:35:32.582Z,1.85
2022-12-17T15:38:34.268Z,1.95
2022-12-17T15:41:54.583Z,1.80
2022-12-17T15:44:56.115Z,2.30
2022-12-17T15:47:57.843Z,3.00
2022-12-17T15:50:59.276Z,3.47
2022-12-17T15:54:00.763Z,3.90
2022-12-17T15:57:02.561Z,4.25
2022-12-17T16:00:04.602Z,3.40
2022-12-17T16:03:06.940Z,3.25
2022-12-17T16:06:08.632Z,2.83
2022-12-17T16:09:10.108Z,2.58
2022-12-17T16:12:11.565Z,2.97
2022-12-17T16:15:13.262Z,2.90
2022-12-17T16:18:16.634Z,3.00
2022-12-17T16:21:18.399Z,3.10
2022-12-17T16:24:19.873Z,2.70
2022-12-17T16:27:21.579Z,2.90
2022-12-17T16:30:23.027Z,2.45
2022-12-17T16:33:24.527Z,2.97
2022-12-17T16:36:26.102Z,3.33
2022-12-17T16:39:27.946Z,2.67
2022-12-17T16:42:29.430Z,2.70
2022-12-17T16:45:30.876Z,2.67
2022-12-17T16:48:38.799Z,2.85
2022-12-17T16:51:41.192Z,2.60
2022-12-17T16:54:42.706Z,2.72
2022-12-17T16:57:44.154Z,2.60
2022-12-17T17:00:46.327Z,2.45
2022-12-17T17:03:48.486Z,2.40
2022-12-17T17:06:53.147Z,2.60
2022-12-17T17:09:54.724Z,2.40
2022-12-17T17:12:56.915Z,2.33
2022-12-17T17:15:58.451Z,2.38
2022-12-17T17:19:01.067Z,2.30
2022-12-17T17:22:02.571Z,2.30
2022-12-17T17:25:05.033Z,2.22
2022-12-17T17:28:06.519Z,2.30
2022-12-17T17:31:11.277Z,2.20
2022-12-17T17:34:14.306Z,2.60
2022-12-17T17:37:16.009Z,2.75
2022-12-17T17:40:17.548Z,2.28
2022-12-17T17:43:19.144Z,2.35
2022-12-17T17:46:20.840Z,2.35
2022-12-17T17:49:22.406Z,2.30
2022-12-17T17:52:23.924Z,2.00
2022-12-17T17:55:25.480Z,2.30
2022-12-17T17:58:27.053Z,2.05
2022-12-17T18:01:37.711Z,2.40
2022-12-17T18:04:40.010Z,2.10
2022-12-17T18:07:41.566Z,2.20
2022-12-17T18:10:43.580Z,1.90
2022-12-17T18:13:57.232Z,1.98
2022-12-17T18:16:58.761Z,2.08
2022-12-17T18:20:00.313Z,2.40
2022-12-17T18:23:01.818Z,2.30
2022-12-17T18:26:09.101Z,2.28
2022-12-17T18:29:24.135Z,2.45
2022-12-17T18:32:25.684Z,2.30
2022-12-17T18:35:27.416Z,2.20
2022-12-17T18:38:28.989Z,2.30
2022-12-17T18:41:48.816Z,2.30
2022-12-17T18:44:50.319Z,1.85
2022-12-17T18:47:51.853Z,2.13
2022-12-17T18:50:53.636Z,2.10
2022-12-17T18:54:00.689Z,1.92
2022-12-17T18:57:02.742Z,1.95
2022-12-17T19:00:05.234Z,1.98
2022-12-17T19:03:07.718Z,1.77
2022-12-17T19:06:09.544Z,2.30
2022-12-17T19:09:27.830Z,2.00
2022-12-17T19:12:29.380Z,2.17
2022-12-17T19:15:30.858Z,2.00
2022-12-17T19:18:32.887Z,2.10
2022-12-17T19:21:34.524Z,2.05
2022-12-17T19:24:36.007Z,2.10
2022-12-17T19:27:38.049Z,2.03
2022-12-17T19:30:39.518Z,1.92
2022-12-17T19:33:41.573Z,1.65
2022-12-17T19:36:43.531Z,1.77
2022-12-17T19:39:45.094Z,1.83
2022-12-17T19:42:46.655Z,1.88
2022-12-17T19:45:48.379Z,1.80
2022-12-17T19:48:51.336Z,2.50
2022-12-17T19:51:53.116Z,1.80
2022-12-17T19:54:54.610Z,1.83
2022-12-17T19:57:56.568Z,1.80
2022-12-17T20:01:05.590Z,1.70
2022-12-17T20:04:07.439Z,1.90
2022-12-17T20:07:08.970Z,1.83
2022-12-17T20:10:10.475Z,1.65
2022-12-17T20:13:11.965Z,1.85
2022-12-17T20:16:13.560Z,1.80
2022-12-17T20:19:18.164Z,1.63
2022-12-17T20:22:19.640Z,1.90
2022-12-17T20:25:21.196Z,1.80
2022-12-17T20:28:22.655Z,2.00
2022-12-17T20:31:24.205Z,1.90
2022-12-17T20:34:25.869Z,1.55
2022-12-17T20:37:27.339Z,1.77
2022-12-17T20:40:28.848Z,1.70
2022-12-17T20:43:30.317Z,1.73
2022-12-17T20:46:32.377Z,1.48
2022-12-17T20:49:33.864Z,1.40
2022-12-17T20:52:35.347Z,1.60
2022-12-17T20:55:37.355Z,1.50
2022-12-17T20:58:40.506Z,1.60
2022-12-17T21:01:42.843Z,1.70
2022-12-17T21:04:44.426Z,1.40
2022-12-17T21:07:45.927Z,1.70
2022-12-17T21:10:47.391Z,1.50
2022-12-17T21:13:48.859Z,1.60
2022-12-17T21:16:50.414Z,1.70
2022-12-17T21:19:51.957Z,1.55
2022-12-17T21:22:53.414Z,1.52
2022-12-17T21:26:10.600Z,1.65
2022-12-17T21:29:12.547Z,1.40
2022-12-17T21:32:13.987Z,1.60
2022-12-17T21:35:15.842Z,1.60
2022-12-17T21:38:18.328Z,1.40
2022-12-17T21:41:23.023Z,1.50
2022-12-17T21:44:24.555Z,1.70
2022-12-17T21:47:26.831Z,1.60
2022-12-17T21:50:28.315Z,1.42
2022-12-17T21:53:29.762Z,1.70
2022-12-17T21:56:31.399Z,1.60
2022-12-17T21:59:32.858Z,1.73
2022-12-17T22:02:34.602Z,1.83
2022-12-17T22:05:37.475Z,1.40
2022-12-17T22:08:39.757Z,1.38
2022-12-17T22:11:41.951Z,1.63
2022-12-17T22:14:43.832Z,1.40
2022-12-17T22:17:45.265Z,1.45
2022-12-17T22:20:57.148Z,1.42
2022-12-17T22:23:58.602Z,1.50
2022-12-17T22:27:00.490Z,1.60
2022-12-17T22:30:20.359Z,1.30
2022-12-17T22:33:48.422Z,1.40
2022-12-17T22:38:58.193Z,1.48
2022-12-17T22:44:29.878Z,1.27
2022-12-17T22:44:33.707Z,1.30
2022-12-17T22:46:51.542Z,1.35
2022-12-17T22:49:53.021Z,1.50
2022-12-17T22:52:55.055Z,1.40
2022-12-17T22:56:12.645Z,1.30
2022-12-17T22:59:19.090Z,1.30
2022-12-17T23:02:20.664Z,1.20
2022-12-17T23:05:23.471Z,1.40
2022-12-17T23:08:24.923Z,1.45
2022-12-17T23:11:27.925Z,1.20
2022-12-17T23:14:29.423Z,1.30
2022-12-17T23:17:30.877Z,1.50
2022-12-17T23:20:34.653Z,1.27
2022-12-17T23:23:36.643Z,1.45
2022-12-17T23:26:39.757Z,1.30
2022-12-17T23:29:41.233Z,1.40
2022-12-17T23:32:43.350Z,1.50
2022-12-17T23:35:44.784Z,1.15
2022-12-17T23:38:47.819Z,1.35
2022-12-17T23:41:49.446Z,1.42
2022-12-17T23:44:50.928Z,1.13
2022-12-17T23:47:52.422Z,1.30
2022-12-17T23:50:53.858Z,1.30
2022-12-17T23:53:55.360Z,1.30
2022-12-17T23:56:56.887Z,1.50
2022-12-17T23:59:58.363Z,1.40
